Time;durP1;ratioP1;P1;durP2;ratioP2;P2;SDS_P1;SDS_P2;PMS_P1;PMS_P2;Temp;Humidity;BMP_temperature;BMP_pressure;BME280_temperature;BME280_humidity;BME280_pressure;Samples;Min_cycle;Max_cycle;Signal;HPM_P1;HPM_P2
2022/01/05 00:00:54;;;;;;;0.47;0.43;;;;;;;;;;4735536;30;20215;-87
2022/01/05 00:03:58;;;;;;;0.63;0.60;;;;;;;;;;4735167;30;20227;-88
2022/01/05 00:07:03;;;;;;;0.60;0.60;;;;;;;;;;4725234;30;20188;-88
2022/01/05 00:10:07;;;;;;;0.80;0.73;;;;;;;;;;4745538;30;20200;-87
2022/01/05 00:13:12;;;;;;;1.00;0.90;;;;;;;;;;4744908;30;20216;-88
2022/01/05 00:16:16;;;;;;;0.70;0.70;;;;;;;;;;4735127;30;20227;-87
2022/01/05 00:19:20;;;;;;;0.63;0.60;;;;;;;;;;4735212;30;20207;-88
2022/01/05 00:22:25;;;;;;;0.77;0.70;;;;;;;;;;4735103;30;20191;-88
2022/01/05 00:25:29;;;;;;;0.80;0.80;;;;;;;;;;4735101;30;20556;-88
2022/01/05 00:28:33;;;;;;;0.90;0.73;;;;;;;;;;4724899;30;20187;-87
2022/01/05 00:31:37;;;;;;;2.73;0.90;;;;;;;;;;4724790;30;20207;-87
2022/01/05 00:34:42;;;;;;;0.80;0.80;;;;;;;;;;4734744;30;20577;-88
2022/01/05 00:37:46;;;;;;;1.03;0.90;;;;;;;;;;4735034;30;20219;-88
2022/01/05 00:40:50;;;;;;;0.80;0.80;;;;;;;;;;4724615;30;20196;-88
2022/01/05 00:43:54;;;;;;;0.80;0.80;;;;;;;;;;4734712;30;20223;-88
2022/01/05 00:46:59;;;;;;;0.97;0.87;;;;;;;;;;4715031;30;20183;-88
2022/01/05 00:50:03;;;;;;;0.60;0.60;;;;;;;;;;4734834;30;20191;-88
2022/01/05 00:53:07;;;;;;;0.80;0.70;;;;;;;;;;4724810;30;20191;-87
2022/01/05 00:56:11;;;;;;;0.60;0.60;;;;;;;;;;4724461;30;21150;-88
2022/01/05 00:59:15;;;;;;;0.63;0.57;;;;;;;;;;4724627;30;20187;-88
2022/01/05 01:02:19;;;;;;;0.60;0.60;;;;;;;;;;4734724;30;20187;-88
2022/01/05 01:05:23;;;;;;;0.83;0.60;;;;;;;;;;4734288;30;20211;-88
2022/01/05 01:08:27;;;;;;;0.60;0.60;;;;;;;;;;4734632;30;20547;-88
2022/01/05 01:11:31;;;;;;;0.60;0.60;;;;;;;;;;4734542;30;20191;-88
2022/01/05 01:14:36;;;;;;;2.73;0.60;;;;;;;;;;4734217;30;20657;-88
2022/01/05 01:17:40;;;;;;;0.60;0.60;;;;;;;;;;4724497;30;20550;-88
2022/01/05 01:20:47;;;;;;;0.50;0.50;;;;;;;;;;4724428;30;20617;-88
2022/01/05 01:23:55;;;;;;;0.60;0.60;;;;;;;;;;4724243;30;21216;-88
2022/01/05 01:26:59;;;;;;;0.50;0.50;;;;;;;;;;4734487;30;20606;-88
2022/01/05 01:30:05;;;;;;;0.80;0.60;;;;;;;;;;4734370;30;20915;-88
2022/01/05 01:33:09;;;;;;;0.50;0.50;;;;;;;;;;4734704;30;20562;-88
2022/01/05 01:36:14;;;;;;;0.50;0.50;;;;;;;;;;4724502;30;20192;-88
2022/01/05 01:39:18;;;;;;;1.00;0.63;;;;;;;;;;4734345;30;20200;-88
2022/01/05 01:42:22;;;;;;;0.73;0.73;;;;;;;;;;4724375;30;21090;-88
2022/01/05 01:45:27;;;;;;;0.70;0.70;;;;;;;;;;4734396;30;20554;-88
2022/01/05 01:48:31;;;;;;;0.80;0.80;;;;;;;;;;4733995;30;21178;-88
2022/01/05 01:51:36;;;;;;;1.03;0.93;;;;;;;;;;4726791;30;20566;-88
2022/01/05 01:54:40;;;;;;;1.10;1.00;;;;;;;;;;4737395;30;20637;-87
2022/01/05 01:57:45;;;;;;;2.57;1.20;;;;;;;;;;4737725;30;20188;-88
2022/01/05 02:00:50;;;;;;;1.20;1.10;;;;;;;;;;4737200;30;20193;-88
2022/01/05 02:03:54;;;;;;;1.57;1.40;;;;;;;;;;4727147;30;20231;-88
2022/01/05 02:06:58;;;;;;;1.50;1.40;;;;;;;;;;4727061;30;20219;-88
2022/01/05 02:10:07;;;;;;;1.37;1.27;;;;;;;;;;4737251;30;20558;-88
2022/01/05 02:13:11;;;;;;;1.77;1.43;;;;;;;;;;4727182;30;20225;-87
2022/01/05 02:16:30;;;;;;;1.33;1.20;;;;;;;;;;4727212;30;20644;-88
2022/01/05 02:19:34;;;;;;;3.43;1.20;;;;;;;;;;4727148;30;20194;-88
2022/01/05 02:22:38;;;;;;;1.47;1.37;;;;;;;;;;4737075;30;20552;-88
2022/01/05 02:25:42;;;;;;;2.73;1.50;;;;;;;;;;4736917;30;20613;-88
2022/01/05 02:28:46;;;;;;;1.60;1.50;;;;;;;;;;4726605;30;20200;-88
2022/01/05 02:31:50;;;;;;;1.70;1.60;;;;;;;;;;4736584;30;20613;-88
2022/01/05 02:34:55;;;;;;;1.43;1.33;;;;;;;;;;4736746;30;20645;-88
2022/01/05 02:37:59;;;;;;;1.50;1.30;;;;;;;;;;4726621;30;20547;-88
2022/01/05 02:41:09;;;;;;;1.70;1.30;;;;;;;;;;4726573;30;20212;-88
2022/01/05 02:44:13;;;;;;;1.53;1.30;;;;;;;;;;4736375;30;20227;-88
2022/01/05 02:47:17;;;;;;;1.43;1.30;;;;;;;;;;4736525;30;20553;-88
2022/01/05 02:50:21;;;;;;;1.90;1.67;;;;;;;;;;4736560;30;20554;-87
2022/01/05 02:53:25;;;;;;;1.80;1.50;;;;;;;;;;4736348;30;20631;-87
2022/01/05 02:56:29;;;;;;;3.50;2.00;;;;;;;;;;4736411;30;20187;-87
2022/01/05 02:59:33;;;;;;;1.67;1.40;;;;;;;;;;4736368;30;20562;-88
2022/01/05 03:02:37;;;;;;;2.03;1.40;;;;;;;;;;4725322;30;20550;-88
2022/01/05 03:05:42;;;;;;;1.50;1.33;;;;;;;;;;4736105;30;20613;-88
2022/01/05 03:08:46;;;;;;;1.00;0.90;;;;;;;;;;4725841;30;20979;-88
2022/01/05 03:11:56;;;;;;;1.80;1.00;;;;;;;;;;4736541;30;20559;-88
2022/01/05 03:15:00;;;;;;;1.10;1.00;;;;;;;;;;4736628;30;20669;-88
2022/01/05 03:18:05;;;;;;;1.67;1.00;;;;;;;;;;4736171;30;20559;-88
2022/01/05 03:21:09;;;;;;;1.10;1.00;;;;;;;;;;4726182;30;20559;-88
2022/01/05 03:25:15;;;;;;;1.03;0.80;;;;;;;;;;4738779;30;20657;-88
2022/01/05 03:28:19;;;;;;;1.50;1.27;;;;;;;;;;4735823;30;20211;-88
2022/01/05 03:31:23;;;;;;;1.20;1.10;;;;;;;;;;4735808;30;20566;-88
2022/01/05 03:34:28;;;;;;;0.73;0.73;;;;;;;;;;4725743;30;20642;-88
2022/01/05 03:37:31;;;;;;;1.00;0.90;;;;;;;;;;4725743;30;20558;-88
2022/01/05 03:40:37;;;;;;;0.90;0.90;;;;;;;;;;4745766;30;20562;-88
2022/01/05 03:43:41;;;;;;;1.13;0.90;;;;;;;;;;4745306;30;20991;-88
2022/01/05 03:46:45;;;;;;;1.10;1.00;;;;;;;;;;4735409;30;21036;-89
2022/01/05 03:49:49;;;;;;;0.83;0.70;;;;;;;;;;4735289;30;20664;-88
2022/01/05 03:52:53;;;;;;;1.23;0.80;;;;;;;;;;4735610;30;20554;-88
2022/01/05 03:55:58;;;;;;;0.60;0.60;;;;;;;;;;4745569;30;20558;-88
2022/01/05 03:59:02;;;;;;;1.40;0.67;;;;;;;;;;4735320;30;20554;-88
2022/01/05 04:02:06;;;;;;;1.73;0.60;;;;;;;;;;4735243;30;20193;-88
2022/01/05 04:05:10;;;;;;;0.73;0.70;;;;;;;;;;4735015;30;20645;-89
2022/01/05 04:08:14;;;;;;;0.63;0.63;;;;;;;;;;4735407;30;21154;-88
2022/01/05 04:11:18;;;;;;;1.33;0.50;;;;;;;;;;4725160;30;20187;-88
2022/01/05 04:14:22;;;;;;;0.80;0.50;;;;;;;;;;4734642;30;20235;-88
2022/01/05 04:17:27;;;;;;;0.50;0.50;;;;;;;;;;4744852;30;20191;-88
2022/01/05 04:20:34;;;;;;;1.33;0.80;;;;;;;;;;4735073;30;20649;-88
2022/01/05 04:23:38;;;;;;;0.83;0.50;;;;;;;;;;4745205;30;20641;-88
2022/01/05 04:26:42;;;;;;;0.53;0.53;;;;;;;;;;4734491;30;20617;-88
2022/01/05 04:29:46;;;;;;;0.53;0.53;;;;;;;;;;4734715;30;20619;-88
2022/01/05 04:32:50;;;;;;;0.70;0.60;;;;;;;;;;4735017;30;20555;-88
2022/01/05 04:35:54;;;;;;;0.83;0.57;;;;;;;;;;4734802;30;20187;-88
2022/01/05 04:38:59;;;;;;;0.47;0.47;;;;;;;;;;4724908;30;20192;-88
2022/01/05 04:42:03;;;;;;;0.60;0.50;;;;;;;;;;4734661;30;20211;-88
2022/01/05 04:45:08;;;;;;;0.40;0.40;;;;;;;;;;4735195;30;20231;-88
2022/01/05 04:48:13;;;;;;;0.60;0.50;;;;;;;;;;4724636;30;20215;-88
2022/01/05 04:51:18;;;;;;;0.50;0.50;;;;;;;;;;4734642;30;20561;-88
2022/01/05 04:54:22;;;;;;;0.70;0.50;;;;;;;;;;4714642;30;20235;-88
2022/01/05 04:57:27;;;;;;;1.23;0.60;;;;;;;;;;4734651;30;20226;-88
2022/01/05 05:00:31;;;;;;;1.03;0.53;;;;;;;;;;4744720;30;20195;-89
2022/01/05 05:03:35;;;;;;;0.60;0.60;;;;;;;;;;4734387;30;20231;-89
2022/01/05 05:06:39;;;;;;;0.53;0.40;;;;;;;;;;4734671;30;20183;-89
2022/01/05 05:09:44;;;;;;;0.83;0.47;;;;;;;;;;4734620;30;20183;-88
2022/01/05 05:12:48;;;;;;;0.60;0.47;;;;;;;;;;4734561;30;20195;-88
2022/01/05 05:15:52;;;;;;;0.40;0.40;;;;;;;;;;4734166;30;20554;-89
2022/01/05 05:18:56;;;;;;;0.50;0.50;;;;;;;;;;4724479;30;20188;-88
2022/01/05 05:22:00;;;;;;;1.80;0.50;;;;;;;;;;4724501;30;20192;-88
2022/01/05 05:25:05;;;;;;;0.80;0.60;;;;;;;;;;4734793;30;20645;-88
2022/01/05 05:28:10;;;;;;;0.83;0.50;;;;;;;;;;4737644;30;20227;-89
2022/01/05 05:31:14;;;;;;;0.50;0.50;;;;;;;;;;4737894;30;20649;-88
2022/01/05 05:34:18;;;;;;;0.47;0.47;;;;;;;;;;4737880;30;20678;-88
2022/01/05 05:37:22;;;;;;;0.47;0.40;;;;;;;;;;4727730;30;20602;-88
2022/01/05 05:40:27;;;;;;;3.20;0.50;;;;;;;;;;4747793;30;20192;-88
2022/01/05 05:43:31;;;;;;;0.50;0.43;;;;;;;;;;4727473;30;20592;-88
2022/01/05 05:46:35;;;;;;;1.20;0.50;;;;;;;;;;4727781;30;20562;-88
2022/01/05 05:49:39;;;;;;;0.50;0.50;;;;;;;;;;4737680;30;20183;-88
2022/01/05 05:52:44;;;;;;;0.40;0.40;;;;;;;;;;4737760;30;20196;-88
2022/01/05 05:55:49;;;;;;;0.50;0.50;;;;;;;;;;4727474;30;20566;-88
2022/01/05 05:58:53;;;;;;;0.40;0.40;;;;;;;;;;4727419;30;20550;-88
2022/01/05 06:01:57;;;;;;;0.60;0.50;;;;;;;;;;4737403;30;20552;-88
2022/01/05 06:05:01;;;;;;;0.50;0.40;;;;;;;;;;4726908;30;20633;-88
2022/01/05 06:08:05;;;;;;;2.03;0.40;;;;;;;;;;4727311;30;20605;-88
2022/01/05 06:11:09;;;;;;;0.70;0.43;;;;;;;;;;4737228;30;20570;-88
2022/01/05 06:14:14;;;;;;;0.93;0.77;;;;;;;;;;4726935;30;20665;-88
2022/01/05 06:17:19;;;;;;;0.40;0.40;;;;;;;;;;4717075;30;21026;-88
2022/01/05 06:20:23;;;;;;;0.40;0.40;;;;;;;;;;4737022;30;20554;-88
2022/01/05 06:23:27;;;;;;;0.37;0.37;;;;;;;;;;4737109;30;20637;-88
2022/01/05 06:26:31;;;;;;;0.40;0.40;;;;;;;;;;4726945;30;20558;-88
2022/01/05 06:29:39;;;;;;;1.70;0.40;;;;;;;;;;4736837;30;20546;-88
2022/01/05 06:32:45;;;;;;;0.40;0.40;;;;;;;;;;4716503;30;20622;-88
2022/01/05 06:35:48;;;;;;;0.50;0.30;;;;;;;;;;4736755;30;20562;-88
2022/01/05 06:38:52;;;;;;;0.40;0.40;;;;;;;;;;4726911;30;20195;-88
2022/01/05 06:41:56;;;;;;;0.30;0.30;;;;;;;;;;4727083;30;20188;-87
2022/01/05 06:45:00;;;;;;;0.70;0.70;;;;;;;;;;4736881;30;20987;-88
2022/01/05 06:48:04;;;;;;;0.40;0.40;;;;;;;;;;4736518;30;20597;-88
2022/01/05 06:51:09;;;;;;;0.60;0.40;;;;;;;;;;4746687;30;20562;-88
2022/01/05 06:54:13;;;;;;;0.30;0.30;;;;;;;;;;4726732;30;20638;-87
2022/01/05 06:57:18;;;;;;;0.40;0.40;;;;;;;;;;4726681;30;21090;-87
2022/01/05 07:00:23;;;;;;;0.40;0.40;;;;;;;;;;4726235;30;20563;-88
2022/01/05 07:03:28;;;;;;;0.57;0.57;;;;;;;;;;4726223;30;20641;-88
2022/01/05 07:06:32;;;;;;;0.50;0.50;;;;;;;;;;4757063;30;20172;-88
2022/01/05 07:09:36;;;;;;;1.20;1.10;;;;;;;;;;4737865;30;20605;-88
2022/01/05 07:12:41;;;;;;;0.70;0.70;;;;;;;;;;4742008;30;20558;-89
2022/01/05 07:15:45;;;;;;;0.80;0.80;;;;;;;;;;4725996;30;20566;-88
2022/01/05 07:18:49;;;;;;;0.57;0.57;;;;;;;;;;4735826;30;20550;-88
2022/01/05 07:21:53;;;;;;;0.80;0.70;;;;;;;;;;4746047;30;20556;-88
2022/01/05 07:24:58;;;;;;;0.40;0.40;;;;;;;;;;4736364;30;20638;-88
2022/01/05 07:28:04;;;;;;;0.50;0.50;;;;;;;;;;4735806;30;20610;-88
2022/01/05 07:31:08;;;;;;;0.40;0.40;;;;;;;;;;4735969;30;20927;-88
2022/01/05 07:34:13;;;;;;;0.50;0.50;;;;;;;;;;4735515;30;20641;-88
2022/01/05 07:37:17;;;;;;;0.40;0.40;;;;;;;;;;4725588;30;20554;-88
2022/01/05 07:40:21;;;;;;;0.50;0.50;;;;;;;;;;4725559;30;20551;-84
2022/01/05 07:43:28;;;;;;;0.40;0.40;;;;;;;;;;4725300;30;20633;-88
2022/01/05 07:46:34;;;;;;;0.90;0.70;;;;;;;;;;4735524;30;20196;-87
2022/01/05 07:49:39;;;;;;;1.07;0.60;;;;;;;;;;4744853;30;21229;-87
2022/01/05 07:52:46;;;;;;;0.80;0.60;;;;;;;;;;4735431;30;20570;-87
2022/01/05 07:55:51;;;;;;;0.93;0.90;;;;;;;;;;4725338;30;20200;-87
2022/01/05 07:58:55;;;;;;;1.00;0.80;;;;;;;;;;4725245;30;20203;-87
2022/01/05 08:01:59;;;;;;;0.70;0.70;;;;;;;;;;4735173;30;20189;-88
2022/01/05 08:05:04;;;;;;;0.50;0.50;;;;;;;;;;4735390;30;21197;-88
2022/01/05 08:08:08;;;;;;;0.50;0.50;;;;;;;;;;4734735;30;21030;-88
2022/01/05 08:11:13;;;;;;;0.90;0.70;;;;;;;;;;4735338;30;20987;-88
2022/01/05 08:14:17;;;;;;;0.70;0.60;;;;;;;;;;4735062;30;20657;-88
2022/01/05 08:17:21;;;;;;;0.53;0.53;;;;;;;;;;4744886;30;20683;-88
2022/01/05 08:20:26;;;;;;;0.60;0.50;;;;;;;;;;4734953;30;21193;-88
2022/01/05 08:23:30;;;;;;;0.70;0.70;;;;;;;;;;4724917;30;20227;-88
2022/01/05 08:26:34;;;;;;;1.30;1.20;;;;;;;;;;4724983;30;20192;-87
2022/01/05 08:29:38;;;;;;;0.57;0.57;;;;;;;;;;4725040;30;20219;-88
2022/01/05 08:32:44;;;;;;;0.60;0.60;;;;;;;;;;4734976;30;20558;-89
2022/01/05 08:35:48;;;;;;;1.30;1.20;;;;;;;;;;4745025;30;20563;-89
2022/01/05 08:38:53;;;;;;;1.70;1.60;;;;;;;;;;4734742;30;20614;-90
2022/01/05 08:41:57;;;;;;;1.03;1.00;;;;;;;;;;4734592;30;20613;-89
2022/01/05 08:45:01;;;;;;;0.80;0.80;;;;;;;;;;4714328;30;20649;-89
2022/01/05 08:48:05;;;;;;;1.10;1.00;;;;;;;;;;4734867;30;20558;-90
2022/01/05 08:51:09;;;;;;;1.30;1.20;;;;;;;;;;4734593;30;20192;-90
2022/01/05 08:54:13;;;;;;;1.40;1.30;;;;;;;;;;4744581;30;20638;-88
2022/01/05 08:57:18;;;;;;;2.67;1.20;;;;;;;;;;4735009;30;20940;-88
2022/01/05 09:00:23;;;;;;;2.53;1.50;;;;;;;;;;4735826;30;20546;-88
2022/01/05 09:17:40;;;;;;;2.33;2.13;;;;;;;;;;4774585;24;20693;-89
2022/01/05 09:20:47;;;;;;;2.20;2.00;;;;;;;;;;4725273;30;20561;-87
2022/01/05 09:23:51;;;;;;;1.93;1.83;;;;;;;;;;4725413;30;20609;-90
2022/01/05 09:26:57;;;;;;;2.60;2.17;;;;;;;;;;4728224;30;20634;-88
2022/01/05 09:30:02;;;;;;;2.10;1.63;;;;;;;;;;4717996;30;20646;-85
2022/01/05 09:33:07;;;;;;;2.30;2.10;;;;;;;;;;4720508;30;21173;-88
2022/01/05 09:36:20;;;;;;;2.20;2.03;;;;;;;;;;4728083;30;20633;-88
2022/01/05 09:42:47;;;;;;;3.07;2.00;;;;;;;;;;4719775;30;20619;-89
2022/01/05 09:46:07;;;;;;;2.27;1.77;;;;;;;;;;4700502;30;20646;-90
2022/01/05 09:49:32;;;;;;;3.73;3.43;;;;;;;;;;4720186;30;20619;-89
2022/01/05 09:52:39;;;;;;;4.73;2.00;;;;;;;;;;4690510;30;20578;-87
2022/01/05 09:55:45;;;;;;;7.57;3.60;;;;;;;;;;4710708;30;20551;-90
2022/01/05 09:58:49;;;;;;;3.83;1.80;;;;;;;;;;4700035;30;20555;-90
2022/01/05 10:01:54;;;;;;;8.03;2.27;;;;;;;;;;4709765;30;20622;-89
2022/01/05 10:04:58;;;;;;;2.90;1.80;;;;;;;;;;4709822;30;20948;-89
2022/01/05 10:08:02;;;;;;;3.33;1.67;;;;;;;;;;4690842;30;20622;-88
2022/01/05 10:11:09;;;;;;;3.27;1.87;;;;;;;;;;4699672;30;20595;-89
2022/01/05 10:14:14;;;;;;;2.87;1.70;;;;;;;;;;4736822;30;21169;-86
2022/01/05 10:17:26;;;;;;;2.20;1.87;;;;;;;;;;4719436;30;20658;-90
2022/01/05 10:20:30;;;;;;;1.87;1.70;;;;;;;;;;4720296;30;20547;-85
2022/01/05 10:23:41;;;;;;;5.10;2.40;;;;;;;;;;4700081;30;20954;-85
2022/01/05 10:26:45;;;;;;;2.90;2.20;;;;;;;;;;4719838;30;20658;-85
2022/01/05 10:30:14;;;;;;;5.50;2.00;;;;;;;;;;4709600;30;21178;-89
2022/01/05 10:33:28;;;;;;;2.17;1.80;;;;;;;;;;4709278;30;20559;-87
2022/01/05 10:36:57;;;;;;;2.77;2.10;;;;;;;;;;4699526;30;20976;-86
2022/01/05 10:40:04;;;;;;;3.13;1.93;;;;;;;;;;4709740;30;20552;-89
2022/01/05 10:43:11;;;;;;;5.77;1.90;;;;;;;;;;4719812;30;20559;-89
2022/01/05 10:46:32;;;;;;;3.40;2.07;;;;;;;;;;4692072;30;21210;-85
2022/01/05 10:49:39;;;;;;;4.03;2.03;;;;;;;;;;4706299;30;21208;-90
2022/01/05 10:52:52;;;;;;;5.63;1.83;;;;;;;;;;4692043;30;20572;-85
2022/01/05 10:55:56;;;;;;;2.77;1.97;;;;;;;;;;4709069;30;20634;-89
2022/01/05 10:59:00;;;;;;;3.57;1.80;;;;;;;;;;4707995;30;20603;-89
2022/01/05 11:02:29;;;;;;;3.87;2.20;;;;;;;;;;4698300;30;21190;-89
2022/01/05 11:05:33;;;;;;;3.03;1.90;;;;;;;;;;4708060;30;20598;-89
2022/01/05 11:08:56;;;;;;;4.43;2.13;;;;;;;;;;4701688;30;21167;-88
2022/01/05 11:12:01;;;;;;;3.20;2.00;;;;;;;;;;4715645;30;20987;-90
2022/01/05 11:15:20;;;;;;;17.67;3.23;;;;;;;;;;4698785;30;21177;-87
2022/01/05 11:18:31;;;;;;;3.00;1.50;;;;;;;;;;4709137;30;21084;-90
2022/01/05 13:33:40;;;;;;;5.13;1.90;;;;;;;;;;4732201;30;20668;-92
2022/01/05 13:36:51;;;;;;;3.33;1.70;;;;;;;;;;4724498;30;20642;-91
2022/01/05 13:40:06;;;;;;;4.43;2.70;;;;;;;;;;4724585;30;20555;-91
2022/01/05 13:43:13;;;;;;;4.43;1.40;;;;;;;;;;4714349;30;20571;-91
2022/01/05 13:46:16;;;;;;;2.90;1.70;;;;;;;;;;4715110;30;20641;-88
2022/01/05 13:49:21;;;;;;;4.23;1.60;;;;;;;;;;4727664;30;20562;-90
2022/01/05 13:52:28;;;;;;;2.73;1.40;;;;;;;;;;4707690;30;20562;-88
2022/01/05 13:55:44;;;;;;;1.30;1.20;;;;;;;;;;4718236;30;20562;-89
2022/01/05 13:58:54;;;;;;;8.23;1.70;;;;;;;;;;4717751;30;20566;-92
2022/01/05 14:01:58;;;;;;;5.27;1.17;;;;;;;;;;4707799;30;20963;-91
2022/01/05 14:05:03;;;;;;;8.27;2.70;;;;;;;;;;4709342;30;20562;-88
2022/01/05 14:08:09;;;;;;;5.63;1.20;;;;;;;;;;4717716;30;20900;-89
2022/01/05 14:11:15;;;;;;;6.70;1.50;;;;;;;;;;4727457;30;20967;-88
2022/01/05 14:14:19;;;;;;;1.70;1.00;;;;;;;;;;4717492;30;20559;-88
2022/01/05 14:17:24;;;;;;;2.47;1.60;;;;;;;;;;4727009;30;21197;-89
2022/01/05 14:25:59;;;;;;;7.47;3.27;;;;;;;;;;4742517;30;20602;-88
2022/01/05 14:29:04;;;;;;;6.03;1.57;;;;;;;;;;4703542;30;20611;-88
2022/01/05 14:32:09;;;;;;;4.67;1.30;;;;;;;;;;4719543;30;20552;-88
2022/01/05 14:35:16;;;;;;;4.33;1.93;;;;;;;;;;4699546;30;20575;-88
2022/01/05 14:38:20;;;;;;;5.53;3.33;;;;;;;;;;4720506;30;20897;-87
2022/01/05 14:41:36;;;;;;;4.13;1.90;;;;;;;;;;4710613;30;20555;-87
2022/01/05 14:49:00;;;;;;;3.10;1.50;;;;;;;;;;4710094;30;20560;-87
2022/01/05 14:52:06;;;;;;;1.83;1.27;;;;;;;;;;4719847;30;21091;-86
2022/01/05 14:55:11;;;;;;;5.33;1.70;;;;;;;;;;4709406;30;20547;-87
2022/01/05 14:58:15;;;;;;;6.73;1.63;;;;;;;;;;4698698;30;20555;-87
2022/01/05 15:01:19;;;;;;;6.20;1.90;;;;;;;;;;4719541;30;20548;-90
2022/01/05 15:04:23;;;;;;;4.80;1.60;;;;;;;;;;4719391;30;20555;-87
2022/01/05 15:07:27;;;;;;;2.70;1.40;;;;;;;;;;4701332;30;20635;-88
2022/01/05 15:10:32;;;;;;;5.37;2.40;;;;;;;;;;4727232;30;20613;-87
2022/01/05 15:13:36;;;;;;;7.07;2.03;;;;;;;;;;4715101;30;20601;-87
2022/01/05 15:16:41;;;;;;;5.13;2.17;;;;;;;;;;4764206;24;20694;-89
2022/01/05 15:19:45;;;;;;;5.23;2.23;;;;;;;;;;4766050;30;20600;-89
2022/01/05 15:22:54;;;;;;;3.23;1.57;;;;;;;;;;4741594;30;20568;-89
2022/01/05 15:25:58;;;;;;;5.00;1.73;;;;;;;;;;4752609;30;20923;-90
2022/01/05 15:29:02;;;;;;;3.20;1.60;;;;;;;;;;4751074;30;20572;-90
2022/01/05 15:32:07;;;;;;;6.70;1.83;;;;;;;;;;4751092;30;21128;-89
2022/01/05 15:35:11;;;;;;;5.20;1.90;;;;;;;;;;4755870;30;20603;-90
2022/01/05 15:38:17;;;;;;;8.03;1.70;;;;;;;;;;4758438;30;20623;-89
2022/01/05 15:41:22;;;;;;;4.93;1.70;;;;;;;;;;4758597;30;20552;-90
2022/01/05 15:44:26;;;;;;;6.47;1.60;;;;;;;;;;4779069;30;20568;-90
2022/01/05 15:47:30;;;;;;;4.33;1.40;;;;;;;;;;4778791;30;20642;-90
2022/01/05 15:50:37;;;;;;;5.87;1.47;;;;;;;;;;4758683;30;20607;-90
2022/01/05 15:53:42;;;;;;;9.83;1.83;;;;;;;;;;4758556;30;21099;-90
2022/01/05 15:57:07;;;;;;;5.20;1.80;;;;;;;;;;4768340;30;20655;-88
2022/01/05 16:03:36;;;;;;;6.80;1.93;;;;;;;;;;4768190;30;20902;-89
2022/01/05 16:06:41;;;;;;;10.33;1.93;;;;;;;;;;4750008;30;20664;-90
2022/01/05 16:09:46;;;;;;;4.73;1.50;;;;;;;;;;4740060;30;20560;-88
2022/01/05 16:12:50;;;;;;;4.43;1.83;;;;;;;;;;4740599;30;20598;-88
2022/01/05 16:15:54;;;;;;;7.10;2.13;;;;;;;;;;4740038;30;21164;-89
2022/01/05 16:18:59;;;;;;;3.60;1.80;;;;;;;;;;4750311;30;20552;-91
2022/01/05 16:22:03;;;;;;;6.00;1.90;;;;;;;;;;4760622;30;20560;-90
2022/01/05 16:25:10;;;;;;;6.77;1.70;;;;;;;;;;4760614;30;20556;-90
2022/01/05 16:28:14;;;;;;;7.50;1.97;;;;;;;;;;4749839;30;20643;-90
2022/01/05 16:31:18;;;;;;;4.40;1.83;;;;;;;;;;4750295;30;20612;-90
2022/01/05 16:34:23;;;;;;;4.73;1.50;;;;;;;;;;4750487;30;20548;-91
2022/01/05 16:37:27;;;;;;;3.70;1.40;;;;;;;;;;4750012;30;20632;-90
2022/01/05 16:40:32;;;;;;;5.23;1.67;;;;;;;;;;4750518;30;20545;-91
2022/01/05 16:43:37;;;;;;;5.00;1.80;;;;;;;;;;4739800;30;20918;-90
2022/01/05 16:46:42;;;;;;;5.63;1.70;;;;;;;;;;4750458;30;21183;-91
2022/01/05 16:49:46;;;;;;;5.33;1.83;;;;;;;;;;4739919;30;20560;-90
2022/01/05 16:52:50;;;;;;;2.87;1.60;;;;;;;;;;4750142;30;20549;-90
2022/01/05 16:55:54;;;;;;;7.87;2.43;;;;;;;;;;4759954;30;20545;-90
2022/01/05 17:02:21;;;;;;;4.97;1.80;;;;;;;;;;4749880;30;21089;-89
2022/01/05 17:05:24;;;;;;;7.00;2.23;;;;;;;;;;4749568;30;20572;-90
2022/01/05 17:08:29;;;;;;;4.40;1.80;;;;;;;;;;4740722;30;20556;-87
2022/01/05 17:11:33;;;;;;;3.73;1.90;;;;;;;;;;4739805;30;20601;-90
2022/01/05 17:14:37;;;;;;;5.63;1.87;;;;;;;;;;4759929;30;20552;-90
2022/01/05 17:17:42;;;;;;;6.97;1.70;;;;;;;;;;4749428;30;20653;-90
2022/01/05 17:20:46;;;;;;;3.83;1.60;;;;;;;;;;4740264;30;20557;-90
2022/01/05 17:23:51;;;;;;;8.97;2.00;;;;;;;;;;4743609;30;20552;-88
2022/01/05 17:26:56;;;;;;;6.63;1.77;;;;;;;;;;4753893;30;20636;-87
2022/01/05 17:30:01;;;;;;;5.33;2.47;;;;;;;;;;4743854;30;20608;-87
2022/01/05 17:33:05;;;;;;;4.73;2.13;;;;;;;;;;4753138;30;20552;-88
2022/01/05 17:36:08;;;;;;;5.97;2.10;;;;;;;;;;4742691;30;20569;-90
2022/01/05 17:39:13;;;;;;;4.90;1.63;;;;;;;;;;4753293;30;20616;-88
2022/01/05 17:42:16;;;;;;;4.63;1.93;;;;;;;;;;4743814;30;20989;-88
2022/01/05 17:45:21;;;;;;;5.63;1.70;;;;;;;;;;4743225;30;20552;-90
2022/01/05 17:48:27;;;;;;;5.93;2.03;;;;;;;;;;4753732;30;20552;-87
2022/01/05 17:51:30;;;;;;;6.07;2.20;;;;;;;;;;4753471;30;21187;-87
2022/01/05 17:54:34;;;;;;;4.37;1.67;;;;;;;;;;4743203;30;21167;-87
2022/01/05 17:57:39;;;;;;;4.43;1.93;;;;;;;;;;4752990;30;20635;-87
2022/01/05 18:00:45;;;;;;;4.77;2.03;;;;;;;;;;4753036;30;20968;-89
2022/01/05 18:03:49;;;;;;;4.57;2.50;;;;;;;;;;4742615;30;20549;-89
2022/01/05 18:06:53;;;;;;;9.03;3.00;;;;;;;;;;4752343;30;20644;-89
2022/01/05 18:09:57;;;;;;;5.80;2.37;;;;;;;;;;4742486;30;20901;-89
2022/01/05 18:13:02;;;;;;;4.60;2.60;;;;;;;;;;4752149;30;20553;-89
2022/01/05 18:16:13;;;;;;;8.33;2.20;;;;;;;;;;4751944;30;20608;-88
2022/01/05 18:19:18;;;;;;;4.47;2.13;;;;;;;;;;4742262;30;20552;-88
2022/01/05 18:22:23;;;;;;;6.63;1.67;;;;;;;;;;4752195;30;20568;-88
2022/01/05 18:25:28;;;;;;;4.67;1.67;;;;;;;;;;4742165;30;20556;-88
2022/01/05 18:28:32;;;;;;;5.70;1.87;;;;;;;;;;4752337;30;20564;-91
2022/01/05 18:31:36;;;;;;;7.07;1.90;;;;;;;;;;4742026;30;20604;-90
2022/01/05 18:34:40;;;;;;;3.57;1.73;;;;;;;;;;4752221;30;21167;-91
2022/01/05 18:37:45;;;;;;;8.70;1.90;;;;;;;;;;4772781;30;20636;-91
2022/01/05 18:40:49;;;;;;;6.13;1.50;;;;;;;;;;4763274;30;21140;-90
2022/01/05 18:43:55;;;;;;;2.33;1.50;;;;;;;;;;4752793;30;20545;-89
2022/01/05 18:47:00;;;;;;;5.87;2.23;;;;;;;;;;4741609;30;20679;-88
2022/01/05 18:50:04;;;;;;;12.40;3.33;;;;;;;;;;4741660;30;20572;-87
2022/01/05 18:53:09;;;;;;;14.90;4.83;;;;;;;;;;4741842;30;20552;-88
2022/01/05 18:56:14;;;;;;;9.77;3.67;;;;;;;;;;4762095;30;20632;-89
2022/01/05 18:59:18;;;;;;;9.27;3.77;;;;;;;;;;4741456;30;20548;-89
2022/01/05 19:02:22;;;;;;;7.93;3.47;;;;;;;;;;4741788;30;21087;-88
2022/01/05 19:09:47;;;;;;;8.67;2.63;;;;;;;;;;4751583;30;20541;-89
2022/01/05 19:12:51;;;;;;;7.33;2.97;;;;;;;;;;4741415;30;20659;-88
2022/01/05 19:15:55;;;;;;;7.43;2.40;;;;;;;;;;4741680;30;20898;-90
2022/01/05 19:18:59;;;;;;;5.80;2.33;;;;;;;;;;4751397;30;20553;-89
2022/01/05 19:22:16;;;;;;;12.17;3.03;;;;;;;;;;4740971;30;21112;-90
2022/01/05 19:25:20;;;;;;;8.70;3.20;;;;;;;;;;4743238;30;21116;-89
2022/01/05 19:28:24;;;;;;;6.20;2.83;;;;;;;;;;4758698;30;20549;-89
2022/01/05 19:31:28;;;;;;;6.60;2.03;;;;;;;;;;4758258;30;20955;-89
2022/01/05 19:34:34;;;;;;;6.43;2.43;;;;;;;;;;4768476;30;20571;-89
2022/01/05 19:37:39;;;;;;;6.87;2.33;;;;;;;;;;4778768;30;20661;-89
2022/01/05 19:40:45;;;;;;;7.97;3.37;;;;;;;;;;4768380;30;20563;-90
2022/01/05 19:43:50;;;;;;;9.00;2.60;;;;;;;;;;4757594;29;20568;-88
2022/01/05 19:46:54;;;;;;;6.70;2.07;;;;;;;;;;4758070;30;20643;-89
2022/01/05 19:49:59;;;;;;;8.83;1.90;;;;;;;;;;4768696;30;20559;-89
2022/01/05 19:53:09;;;;;;;6.03;2.10;;;;;;;;;;4758086;30;20623;-90
2022/01/05 19:56:20;;;;;;;5.47;2.40;;;;;;;;;;4758260;30;20635;-89
2022/01/05 19:59:27;;;;;;;5.63;1.97;;;;;;;;;;4751528;30;20608;-89
2022/01/05 20:02:31;;;;;;;3.93;1.90;;;;;;;;;;4740994;30;20553;-89
2022/01/05 20:05:38;;;;;;;5.43;1.70;;;;;;;;;;4750636;30;20549;-89
2022/01/05 20:08:42;;;;;;;8.17;2.20;;;;;;;;;;4760554;30;20548;-88
2022/01/05 20:11:52;;;;;;;9.37;2.57;;;;;;;;;;4760658;30;20604;-89
2022/01/05 20:14:56;;;;;;;5.27;2.00;;;;;;;;;;4763193;30;20611;-90
2022/01/05 20:18:01;;;;;;;9.63;2.70;;;;;;;;;;4757597;30;20646;-89
2022/01/05 20:21:04;;;;;;;11.07;3.57;;;;;;;;;;4757635;30;20618;-89
2022/01/05 20:24:09;;;;;;;8.43;3.23;;;;;;;;;;4757707;30;20567;-90
2022/01/05 20:27:16;;;;;;;14.03;4.20;;;;;;;;;;4743207;30;20664;-89
2022/01/05 20:30:22;;;;;;;14.47;3.30;;;;;;;;;;4749914;30;20569;-88
2022/01/05 20:33:27;;;;;;;15.17;5.60;;;;;;;;;;4760216;30;20998;-89
2022/01/05 20:36:32;;;;;;;27.77;11.27;;;;;;;;;;4750746;30;20647;-89
2022/01/05 20:39:37;;;;;;;21.90;9.03;;;;;;;;;;4749844;30;20623;-89
2022/01/05 20:42:45;;;;;;;16.27;7.23;;;;;;;;;;4740736;30;20615;-89
2022/01/05 20:45:51;;;;;;;16.47;6.63;;;;;;;;;;4750284;30;20604;-89
2022/01/05 20:49:01;;;;;;;26.00;9.40;;;;;;;;;;4740530;30;20565;-89
2022/01/05 20:52:05;;;;;;;26.50;10.13;;;;;;;;;;4750814;30;20620;-87
2022/01/05 20:55:10;;;;;;;26.03;10.90;;;;;;;;;;4750947;30;20624;-87
2022/01/05 20:58:16;;;;;;;34.83;14.50;;;;;;;;;;4750041;30;20644;-88
2022/01/05 21:01:22;;;;;;;29.50;12.33;;;;;;;;;;4740602;30;20557;-88
2022/01/05 21:04:28;;;;;;;17.57;6.13;;;;;;;;;;4750676;30;20556;-88
2022/01/05 21:07:33;;;;;;;9.37;2.53;;;;;;;;;;4751466;30;20627;-89
2022/01/05 21:10:37;;;;;;;32.57;12.63;;;;;;;;;;4750517;30;20612;-88
2022/01/05 21:13:42;;;;;;;7.97;2.60;;;;;;;;;;4751225;30;21159;-88
2022/01/05 21:16:46;;;;;;;11.53;4.63;;;;;;;;;;4752279;30;20670;-92
2022/01/05 21:19:50;;;;;;;7.33;3.30;;;;;;;;;;4754624;30;20950;-91
2022/01/05 21:22:55;;;;;;;11.47;4.40;;;;;;;;;;4761533;30;20604;-93